CCS weather

Public forecast

Using degrees Celsius for public forecast. Weather courtesy of forecast.io.

Current aviation weather report (METAR) for Simón Bolívar International Airport

Retrieved 2020/08/13 13:02 UTC (43 minutes ago):

SVMI 131302Z AUTO 03004KT NCD ///// Q1011

Aviation forecast (TAF) for Simón Bolívar International Airport

Retrieved 2020/08/13 12:03 UTC (2 hours ago):

TAF SVMI 131000Z 1312/1412 09010KT 9999 BKN016 TX31/1318Z TN24/1308Z TEMPO 1312/1316 09005KT 9000 -DZ BKN013